sensor_id;sensor_type;location;lat;lon;timestamp;P1;durP1;ratioP1;P2;durP2;ratioP2
12271;SDS011;6198;51.446;6.698;2023-04-06T00:01:36;15.80;;;12.27;;
12271;SDS011;6198;51.446;6.698;2023-04-06T00:04:02;15.10;;;11.73;;
12271;SDS011;6198;51.446;6.698;2023-04-06T00:06:28;18.37;;;11.83;;
12271;SDS011;6198;51.446;6.698;2023-04-06T00:08:55;15.77;;;12.00;;
12271;SDS011;6198;51.446;6.698;2023-04-06T00:11:21;15.73;;;12.07;;
12271;SDS011;6198;51.446;6.698;2023-04-06T00:13:47;15.17;;;11.73;;
12271;SDS011;6198;51.446;6.698;2023-04-06T00:16:13;20.03;;;12.60;;
12271;SDS011;6198;51.446;6.698;2023-04-06T00:18:39;17.43;;;11.90;;
12271;SDS011;6198;51.446;6.698;2023-04-06T00:21:06;20.60;;;13.37;;
12271;SDS011;6198;51.446;6.698;2023-04-06T00:23:32;21.73;;;15.53;;
12271;SDS011;6198;51.446;6.698;2023-04-06T00:25:58;25.03;;;16.13;;
12271;SDS011;6198;51.446;6.698;2023-04-06T00:28:23;25.43;;;17.57;;
12271;SDS011;6198;51.446;6.698;2023-04-06T00:30:54;24.73;;;16.70;;
12271;SDS011;6198;51.446;6.698;2023-04-06T00:33:21;24.67;;;16.53;;
12271;SDS011;6198;51.446;6.698;2023-04-06T00:35:47;23.00;;;15.30;;
12271;SDS011;6198;51.446;6.698;2023-04-06T00:38:14;22.37;;;15.80;;
12271;SDS011;6198;51.446;6.698;2023-04-06T00:40:40;23.73;;;16.03;;
12271;SDS011;6198;51.446;6.698;2023-04-06T00:43:06;21.13;;;15.63;;
12271;SDS011;6198;51.446;6.698;2023-04-06T00:45:34;18.33;;;14.83;;
12271;SDS011;6198;51.446;6.698;2023-04-06T00:48:00;21.77;;;14.33;;
12271;SDS011;6198;51.446;6.698;2023-04-06T00:50:26;19.87;;;12.73;;
12271;SDS011;6198;51.446;6.698;2023-04-06T00:52:52;16.63;;;12.90;;
12271;SDS011;6198;51.446;6.698;2023-04-06T00:55:19;16.40;;;11.97;;
12271;SDS011;6198;51.446;6.698;2023-04-06T00:57:45;17.27;;;12.00;;
12271;SDS011;6198;51.446;6.698;2023-04-06T01:00:12;14.20;;;11.50;;
12271;SDS011;6198;51.446;6.698;2023-04-06T01:02:38;16.53;;;11.83;;
12271;SDS011;6198;51.446;6.698;2023-04-06T01:05:04;18.20;;;12.50;;
12271;SDS011;6198;51.446;6.698;2023-04-06T01:07:30;18.13;;;11.33;;
12271;SDS011;6198;51.446;6.698;2023-04-06T01:09:57;18.10;;;12.97;;
12271;SDS011;6198;51.446;6.698;2023-04-06T01:12:23;17.80;;;12.53;;
12271;SDS011;6198;51.446;6.698;2023-04-06T01:14:49;17.67;;;12.57;;
12271;SDS011;6198;51.446;6.698;2023-04-06T01:17:15;20.20;;;12.33;;
12271;SDS011;6198;51.446;6.698;2023-04-06T01:19:41;16.93;;;12.70;;
12271;SDS011;6198;51.446;6.698;2023-04-06T01:22:13;18.83;;;12.33;;
12271;SDS011;6198;51.446;6.698;2023-04-06T01:24:39;17.10;;;11.97;;
12271;SDS011;6198;51.446;6.698;2023-04-06T01:27:04;15.47;;;12.43;;
12271;SDS011;6198;51.446;6.698;2023-04-06T01:29:30;16.43;;;11.90;;
12271;SDS011;6198;51.446;6.698;2023-04-06T01:31:56;14.77;;;11.40;;
12271;SDS011;6198;51.446;6.698;2023-04-06T01:34:22;17.17;;;12.23;;
12271;SDS011;6198;51.446;6.698;2023-04-06T01:36:48;16.63;;;11.40;;
12271;SDS011;6198;51.446;6.698;2023-04-06T01:39:14;17.67;;;11.63;;
12271;SDS011;6198;51.446;6.698;2023-04-06T01:41:40;19.30;;;11.83;;
12271;SDS011;6198;51.446;6.698;2023-04-06T01:44:06;16.47;;;11.63;;
12271;SDS011;6198;51.446;6.698;2023-04-06T01:46:32;15.13;;;11.63;;
12271;SDS011;6198;51.446;6.698;2023-04-06T01:48:58;17.70;;;12.33;;
12271;SDS011;6198;51.446;6.698;2023-04-06T01:51:24;16.83;;;11.43;;
12271;SDS011;6198;51.446;6.698;2023-04-06T01:53:50;20.20;;;11.57;;
12271;SDS011;6198;51.446;6.698;2023-04-06T01:56:16;15.43;;;11.50;;
12271;SDS011;6198;51.446;6.698;2023-04-06T01:58:42;15.73;;;11.40;;
12271;SDS011;6198;51.446;6.698;2023-04-06T02:01:08;20.07;;;10.73;;
12271;SDS011;6198;51.446;6.698;2023-04-06T02:03:34;15.73;;;11.87;;
12271;SDS011;6198;51.446;6.698;2023-04-06T02:06:00;13.80;;;11.23;;
12271;SDS011;6198;51.446;6.698;2023-04-06T02:08:26;14.13;;;11.47;;
12271;SDS011;6198;51.446;6.698;2023-04-06T02:10:52;16.37;;;12.23;;
12271;SDS011;6198;51.446;6.698;2023-04-06T02:13:18;15.20;;;11.63;;
12271;SDS011;6198;51.446;6.698;2023-04-06T02:15:44;13.93;;;11.87;;
12271;SDS011;6198;51.446;6.698;2023-04-06T02:18:10;17.03;;;12.03;;
12271;SDS011;6198;51.446;6.698;2023-04-06T02:20:36;17.60;;;12.13;;
12271;SDS011;6198;51.446;6.698;2023-04-06T02:23:02;17.60;;;12.80;;
12271;SDS011;6198;51.446;6.698;2023-04-06T02:25:28;18.60;;;12.07;;
12271;SDS011;6198;51.446;6.698;2023-04-06T02:27:54;18.97;;;12.30;;
12271;SDS011;6198;51.446;6.698;2023-04-06T02:30:20;16.43;;;12.27;;
12271;SDS011;6198;51.446;6.698;2023-04-06T02:32:46;16.43;;;12.03;;
12271;SDS011;6198;51.446;6.698;2023-04-06T02:35:12;18.37;;;12.70;;
12271;SDS011;6198;51.446;6.698;2023-04-06T02:37:37;22.30;;;13.37;;
12271;SDS011;6198;51.446;6.698;2023-04-06T02:40:04;20.83;;;13.33;;
12271;SDS011;6198;51.446;6.698;2023-04-06T02:42:31;17.53;;;13.60;;
12271;SDS011;6198;51.446;6.698;2023-04-06T02:44:57;22.17;;;13.10;;
12271;SDS011;6198;51.446;6.698;2023-04-06T02:47:23;24.27;;;12.97;;
12271;SDS011;6198;51.446;6.698;2023-04-06T02:49:49;21.17;;;12.93;;
12271;SDS011;6198;51.446;6.698;2023-04-06T02:52:15;17.23;;;12.77;;
12271;SDS011;6198;51.446;6.698;2023-04-06T02:54:42;19.70;;;12.10;;
12271;SDS011;6198;51.446;6.698;2023-04-06T02:57:08;18.70;;;12.87;;
12271;SDS011;6198;51.446;6.698;2023-04-06T02:59:34;17.27;;;12.90;;
12271;SDS011;6198;51.446;6.698;2023-04-06T03:02:00;16.63;;;12.90;;
12271;SDS011;6198;51.446;6.698;2023-04-06T03:04:26;15.60;;;12.70;;
12271;SDS011;6198;51.446;6.698;2023-04-06T03:06:53;20.10;;;13.37;;
12271;SDS011;6198;51.446;6.698;2023-04-06T03:09:20;16.50;;;13.53;;
12271;SDS011;6198;51.446;6.698;2023-04-06T03:11:46;17.20;;;13.57;;
12271;SDS011;6198;51.446;6.698;2023-04-06T03:14:12;26.47;;;12.67;;
12271;SDS011;6198;51.446;6.698;2023-04-06T03:16:38;17.03;;;12.43;;
12271;SDS011;6198;51.446;6.698;2023-04-06T03:19:04;16.83;;;14.23;;
12271;SDS011;6198;51.446;6.698;2023-04-06T03:21:30;20.50;;;14.50;;
12271;SDS011;6198;51.446;6.698;2023-04-06T03:23:56;18.80;;;14.07;;
12271;SDS011;6198;51.446;6.698;2023-04-06T03:26:22;19.57;;;14.13;;
12271;SDS011;6198;51.446;6.698;2023-04-06T03:28:48;21.90;;;14.00;;
12271;SDS011;6198;51.446;6.698;2023-04-06T03:31:14;19.20;;;14.13;;
12271;SDS011;6198;51.446;6.698;2023-04-06T03:33:40;19.60;;;14.23;;
12271;SDS011;6198;51.446;6.698;2023-04-06T03:36:06;16.97;;;13.97;;
12271;SDS011;6198;51.446;6.698;2023-04-06T03:38:32;19.37;;;15.13;;
12271;SDS011;6198;51.446;6.698;2023-04-06T03:40:58;19.57;;;15.47;;
12271;SDS011;6198;51.446;6.698;2023-04-06T03:43:24;19.50;;;15.10;;
12271;SDS011;6198;51.446;6.698;2023-04-06T03:45:50;19.83;;;13.53;;
12271;SDS011;6198;51.446;6.698;2023-04-06T03:48:16;18.63;;;14.17;;
12271;SDS011;6198;51.446;6.698;2023-04-06T03:50:42;20.30;;;13.90;;
12271;SDS011;6198;51.446;6.698;2023-04-06T03:53:08;18.73;;;14.83;;
12271;SDS011;6198;51.446;6.698;2023-04-06T03:55:34;17.17;;;14.07;;
12271;SDS011;6198;51.446;6.698;2023-04-06T03:58:00;17.33;;;13.87;;
12271;SDS011;6198;51.446;6.698;2023-04-06T04:00:26;18.67;;;14.27;;
12271;SDS011;6198;51.446;6.698;2023-04-06T04:02:52;20.20;;;14.07;;
12271;SDS011;6198;51.446;6.698;2023-04-06T04:05:18;17.83;;;13.33;;
12271;SDS011;6198;51.446;6.698;2023-04-06T04:07:44;16.67;;;13.27;;
12271;SDS011;6198;51.446;6.698;2023-04-06T04:10:10;17.73;;;13.50;;
12271;SDS011;6198;51.446;6.698;2023-04-06T04:12:36;17.73;;;13.73;;
12271;SDS011;6198;51.446;6.698;2023-04-06T04:15:02;17.73;;;13.10;;
12271;SDS011;6198;51.446;6.698;2023-04-06T04:17:28;16.90;;;13.53;;
12271;SDS011;6198;51.446;6.698;2023-04-06T04:19:54;17.77;;;13.63;;
12271;SDS011;6198;51.446;6.698;2023-04-06T04:22:20;18.17;;;13.57;;
12271;SDS011;6198;51.446;6.698;2023-04-06T04:24:46;16.53;;;13.07;;
12271;SDS011;6198;51.446;6.698;2023-04-06T04:27:12;17.77;;;12.87;;
12271;SDS011;6198;51.446;6.698;2023-04-06T04:29:38;18.40;;;14.10;;
12271;SDS011;6198;51.446;6.698;2023-04-06T04:32:04;19.47;;;14.10;;
12271;SDS011;6198;51.446;6.698;2023-04-06T04:34:30;15.87;;;12.63;;
12271;SDS011;6198;51.446;6.698;2023-04-06T04:36:56;17.27;;;13.67;;
12271;SDS011;6198;51.446;6.698;2023-04-06T04:39:22;18.30;;;14.00;;
12271;SDS011;6198;51.446;6.698;2023-04-06T04:41:48;20.17;;;13.07;;
12271;SDS011;6198;51.446;6.698;2023-04-06T04:44:14;17.97;;;14.47;;
12271;SDS011;6198;51.446;6.698;2023-04-06T04:46:40;17.80;;;13.50;;
12271;SDS011;6198;51.446;6.698;2023-04-06T04:49:06;19.63;;;14.50;;
12271;SDS011;6198;51.446;6.698;2023-04-06T04:51:32;20.27;;;13.83;;
12271;SDS011;6198;51.446;6.698;2023-04-06T04:53:58;21.53;;;15.00;;
12271;SDS011;6198;51.446;6.698;2023-04-06T04:56:24;16.60;;;12.93;;
12271;SDS011;6198;51.446;6.698;2023-04-06T04:58:52;21.33;;;14.03;;
12271;SDS011;6198;51.446;6.698;2023-04-06T05:01:18;20.20;;;13.37;;
12271;SDS011;6198;51.446;6.698;2023-04-06T05:03:44;14.07;;;11.77;;
12271;SDS011;6198;51.446;6.698;2023-04-06T05:06:10;15.40;;;12.30;;
12271;SDS011;6198;51.446;6.698;2023-04-06T05:08:36;15.57;;;12.10;;
12271;SDS011;6198;51.446;6.698;2023-04-06T05:11:02;15.00;;;12.27;;
12271;SDS011;6198;51.446;6.698;2023-04-06T05:13:29;15.80;;;12.43;;
12271;SDS011;6198;51.446;6.698;2023-04-06T05:15:56;18.73;;;12.97;;
12271;SDS011;6198;51.446;6.698;2023-04-06T05:18:21;14.17;;;11.60;;
12271;SDS011;6198;51.446;6.698;2023-04-06T05:20:47;15.83;;;11.10;;
12271;SDS011;6198;51.446;6.698;2023-04-06T05:23:14;16.27;;;11.63;;
12271;SDS011;6198;51.446;6.698;2023-04-06T05:25:40;15.10;;;11.93;;
12271;SDS011;6198;51.446;6.698;2023-04-06T05:28:06;15.90;;;11.03;;
12271;SDS011;6198;51.446;6.698;2023-04-06T05:30:32;16.40;;;12.37;;
12271;SDS011;6198;51.446;6.698;2023-04-06T05:33:00;16.67;;;11.27;;
12271;SDS011;6198;51.446;6.698;2023-04-06T05:35:26;15.90;;;11.57;;
12271;SDS011;6198;51.446;6.698;2023-04-06T05:37:52;19.00;;;11.57;;
12271;SDS011;6198;51.446;6.698;2023-04-06T05:40:18;17.93;;;11.50;;
12271;SDS011;6198;51.446;6.698;2023-04-06T05:42:44;15.33;;;11.27;;
12271;SDS011;6198;51.446;6.698;2023-04-06T05:45:10;13.87;;;10.40;;
12271;SDS011;6198;51.446;6.698;2023-04-06T05:47:41;13.70;;;9.37;;
12271;SDS011;6198;51.446;6.698;2023-04-06T05:50:08;12.33;;;8.53;;
12271;SDS011;6198;51.446;6.698;2023-04-06T05:52:33;14.43;;;10.60;;
12271;SDS011;6198;51.446;6.698;2023-04-06T05:54:59;12.43;;;9.40;;
12271;SDS011;6198;51.446;6.698;2023-04-06T05:57:25;12.43;;;8.87;;
12271;SDS011;6198;51.446;6.698;2023-04-06T05:59:51;13.20;;;9.60;;
12271;SDS011;6198;51.446;6.698;2023-04-06T06:02:17;15.07;;;9.70;;
12271;SDS011;6198;51.446;6.698;2023-04-06T06:04:43;14.10;;;9.50;;
12271;SDS011;6198;51.446;6.698;2023-04-06T06:07:09;16.53;;;9.93;;
12271;SDS011;6198;51.446;6.698;2023-04-06T06:09:35;16.73;;;9.23;;
12271;SDS011;6198;51.446;6.698;2023-04-06T06:12:01;12.93;;;9.80;;
12271;SDS011;6198;51.446;6.698;2023-04-06T06:14:27;11.97;;;9.17;;
12271;SDS011;6198;51.446;6.698;2023-04-06T06:16:53;15.10;;;9.07;;
12271;SDS011;6198;51.446;6.698;2023-04-06T06:19:19;13.50;;;9.83;;
12271;SDS011;6198;51.446;6.698;2023-04-06T06:21:45;16.70;;;10.13;;
12271;SDS011;6198;51.446;6.698;2023-04-06T06:24:11;14.17;;;9.10;;
12271;SDS011;6198;51.446;6.698;2023-04-06T06:26:37;15.53;;;8.93;;
12271;SDS011;6198;51.446;6.698;2023-04-06T06:29:04;17.53;;;9.00;;
12271;SDS011;6198;51.446;6.698;2023-04-06T06:31:30;13.93;;;9.57;;
12271;SDS011;6198;51.446;6.698;2023-04-06T06:33:56;12.67;;;9.20;;
12271;SDS011;6198;51.446;6.698;2023-04-06T06:36:22;14.30;;;9.03;;
12271;SDS011;6198;51.446;6.698;2023-04-06T06:38:48;11.53;;;9.13;;
12271;SDS011;6198;51.446;6.698;2023-04-06T06:41:15;12.03;;;8.47;;
12271;SDS011;6198;51.446;6.698;2023-04-06T06:43:41;13.77;;;9.03;;
12271;SDS011;6198;51.446;6.698;2023-04-06T06:46:07;12.13;;;8.83;;
12271;SDS011;6198;51.446;6.698;2023-04-06T06:48:33;15.47;;;9.90;;
12271;SDS011;6198;51.446;6.698;2023-04-06T06:50:59;13.70;;;9.47;;
12271;SDS011;6198;51.446;6.698;2023-04-06T06:53:25;14.73;;;8.73;;
12271;SDS011;6198;51.446;6.698;2023-04-06T06:55:51;11.77;;;8.17;;
12271;SDS011;6198;51.446;6.698;2023-04-06T06:58:20;18.27;;;9.17;;
12271;SDS011;6198;51.446;6.698;2023-04-06T07:00:46;14.50;;;9.13;;
12271;SDS011;6198;51.446;6.698;2023-04-06T07:03:12;11.37;;;8.23;;
12271;SDS011;6198;51.446;6.698;2023-04-06T07:05:38;15.70;;;8.77;;
12271;SDS011;6198;51.446;6.698;2023-04-06T07:08:04;16.50;;;10.63;;
12271;SDS011;6198;51.446;6.698;2023-04-06T07:10:30;17.73;;;11.80;;
12271;SDS011;6198;51.446;6.698;2023-04-06T07:12:56;15.77;;;11.37;;
12271;SDS011;6198;51.446;6.698;2023-04-06T07:15:22;14.47;;;10.20;;
12271;SDS011;6198;51.446;6.698;2023-04-06T07:17:48;18.33;;;11.10;;
12271;SDS011;6198;51.446;6.698;2023-04-06T07:20:14;13.77;;;9.47;;
12271;SDS011;6198;51.446;6.698;2023-04-06T07:22:42;8.73;;;7.73;;
12271;SDS011;6198;51.446;6.698;2023-04-06T07:25:09;12.27;;;9.27;;
12271;SDS011;6198;51.446;6.698;2023-04-06T07:27:35;10.87;;;8.83;;
12271;SDS011;6198;51.446;6.698;2023-04-06T07:30:01;12.60;;;8.30;;
12271;SDS011;6198;51.446;6.698;2023-04-06T07:32:27;12.27;;;8.73;;
12271;SDS011;6198;51.446;6.698;2023-04-06T07:34:55;9.67;;;8.47;;
12271;SDS011;6198;51.446;6.698;2023-04-06T07:37:21;11.20;;;8.50;;
12271;SDS011;6198;51.446;6.698;2023-04-06T07:39:47;11.13;;;8.67;;
12271;SDS011;6198;51.446;6.698;2023-04-06T07:42:13;9.63;;;8.30;;
12271;SDS011;6198;51.446;6.698;2023-04-06T07:44:39;11.43;;;8.20;;
12271;SDS011;6198;51.446;6.698;2023-04-06T07:47:05;12.00;;;8.73;;
12271;SDS011;6198;51.446;6.698;2023-04-06T07:49:31;11.77;;;8.97;;
12271;SDS011;6198;51.446;6.698;2023-04-06T07:51:57;13.50;;;8.93;;
12271;SDS011;6198;51.446;6.698;2023-04-06T07:54:24;13.83;;;8.40;;
12271;SDS011;6198;51.446;6.698;2023-04-06T07:56:50;17.43;;;9.33;;
12271;SDS011;6198;51.446;6.698;2023-04-06T07:59:15;13.27;;;9.80;;
12271;SDS011;6198;51.446;6.698;2023-04-06T08:01:41;14.57;;;9.40;;
12271;SDS011;6198;51.446;6.698;2023-04-06T08:04:07;14.50;;;9.73;;
12271;SDS011;6198;51.446;6.698;2023-04-06T08:06:33;18.10;;;10.07;;
12271;SDS011;6198;51.446;6.698;2023-04-06T08:08:59;13.47;;;9.53;;
12271;SDS011;6198;51.446;6.698;2023-04-06T08:11:25;17.57;;;11.33;;
12271;SDS011;6198;51.446;6.698;2023-04-06T08:13:51;14.23;;;9.80;;
12271;SDS011;6198;51.446;6.698;2023-04-06T08:16:18;15.10;;;10.00;;
12271;SDS011;6198;51.446;6.698;2023-04-06T08:18:44;14.43;;;9.40;;
12271;SDS011;6198;51.446;6.698;2023-04-06T08:21:10;15.40;;;10.13;;
12271;SDS011;6198;51.446;6.698;2023-04-06T08:23:36;13.77;;;10.13;;
12271;SDS011;6198;51.446;6.698;2023-04-06T08:26:02;11.70;;;9.23;;
12271;SDS011;6198;51.446;6.698;2023-04-06T08:28:28;12.73;;;9.07;;
12271;SDS011;6198;51.446;6.698;2023-04-06T08:30:54;12.60;;;8.90;;
12271;SDS011;6198;51.446;6.698;2023-04-06T08:33:20;16.17;;;9.93;;
12271;SDS011;6198;51.446;6.698;2023-04-06T08:35:46;11.63;;;9.77;;
12271;SDS011;6198;51.446;6.698;2023-04-06T08:38:12;14.33;;;10.60;;
12271;SDS011;6198;51.446;6.698;2023-04-06T08:40:38;13.23;;;9.67;;
12271;SDS011;6198;51.446;6.698;2023-04-06T08:43:06;14.83;;;11.13;;
12271;SDS011;6198;51.446;6.698;2023-04-06T08:45:33;13.13;;;9.30;;
12271;SDS011;6198;51.446;6.698;2023-04-06T08:47:59;16.20;;;10.50;;
12271;SDS011;6198;51.446;6.698;2023-04-06T08:50:27;15.67;;;10.37;;
12271;SDS011;6198;51.446;6.698;2023-04-06T08:52:53;19.13;;;11.33;;
12271;SDS011;6198;51.446;6.698;2023-04-06T08:55:19;21.67;;;11.90;;
12271;SDS011;6198;51.446;6.698;2023-04-06T08:57:45;16.07;;;11.00;;
12271;SDS011;6198;51.446;6.698;2023-04-06T09:00:14;15.47;;;10.77;;
12271;SDS011;6198;51.446;6.698;2023-04-06T09:02:42;16.27;;;11.83;;
12271;SDS011;6198;51.446;6.698;2023-04-06T09:05:08;16.30;;;11.90;;
12271;SDS011;6198;51.446;6.698;2023-04-06T09:07:35;16.40;;;11.10;;
12271;SDS011;6198;51.446;6.698;2023-04-06T09:10:02;18.67;;;11.63;;
12271;SDS011;6198;51.446;6.698;2023-04-06T09:12:28;20.03;;;12.80;;
12271;SDS011;6198;51.446;6.698;2023-04-06T09:14:55;25.60;;;14.47;;
12271;SDS011;6198;51.446;6.698;2023-04-06T09:17:22;25.37;;;15.00;;
12271;SDS011;6198;51.446;6.698;2023-04-06T09:19:48;27.13;;;15.53;;
12271;SDS011;6198;51.446;6.698;2023-04-06T09:22:14;26.17;;;14.47;;
12271;SDS011;6198;51.446;6.698;2023-04-06T09:24:44;22.93;;;14.83;;
12271;SDS011;6198;51.446;6.698;2023-04-06T09:27:10;23.23;;;14.80;;
12271;SDS011;6198;51.446;6.698;2023-04-06T09:29:36;22.33;;;15.03;;
12271;SDS011;6198;51.446;6.698;2023-04-06T09:32:06;23.23;;;14.97;;
12271;SDS011;6198;51.446;6.698;2023-04-06T09:34:33;22.63;;;14.80;;
12271;SDS011;6198;51.446;6.698;2023-04-06T09:36:59;20.13;;;14.87;;
12271;SDS011;6198;51.446;6.698;2023-04-06T09:39:25;26.90;;;15.40;;
12271;SDS011;6198;51.446;6.698;2023-04-06T09:41:51;28.97;;;16.93;;
12271;SDS011;6198;51.446;6.698;2023-04-06T09:44:18;27.47;;;15.47;;
12271;SDS011;6198;51.446;6.698;2023-04-06T09:46:45;22.57;;;14.70;;
12271;SDS011;6198;51.446;6.698;2023-04-06T09:49:12;19.00;;;13.57;;
12271;SDS011;6198;51.446;6.698;2023-04-06T09:51:49;20.00;;;13.90;;
12271;SDS011;6198;51.446;6.698;2023-04-06T09:54:20;22.63;;;14.17;;
12271;SDS011;6198;51.446;6.698;2023-04-06T09:56:47;23.60;;;15.93;;
12271;SDS011;6198;51.446;6.698;2023-04-06T09:59:21;21.43;;;13.77;;
12271;SDS011;6198;51.446;6.698;2023-04-06T10:01:50;22.17;;;14.43;;
12271;SDS011;6198;51.446;6.698;2023-04-06T10:07:01;29.70;;;15.10;;
12271;SDS011;6198;51.446;6.698;2023-04-06T10:09:28;19.83;;;13.30;;
12271;SDS011;6198;51.446;6.698;2023-04-06T10:12:02;20.50;;;14.27;;
12271;SDS011;6198;51.446;6.698;2023-04-06T10:14:28;19.50;;;13.90;;
12271;SDS011;6198;51.446;6.698;2023-04-06T10:16:54;19.40;;;13.70;;
12271;SDS011;6198;51.446;6.698;2023-04-06T10:19:21;21.53;;;13.20;;
12271;SDS011;6198;51.446;6.698;2023-04-06T10:21:48;20.60;;;13.97;;
12271;SDS011;6198;51.446;6.698;2023-04-06T10:24:16;19.77;;;13.60;;
12271;SDS011;6198;51.446;6.698;2023-04-06T10:26:43;17.80;;;13.10;;
12271;SDS011;6198;51.446;6.698;2023-04-06T10:29:08;20.67;;;13.67;;
12271;SDS011;6198;51.446;6.698;2023-04-06T10:31:39;21.53;;;14.63;;
12271;SDS011;6198;51.446;6.698;2023-04-06T10:34:05;22.20;;;15.20;;
12271;SDS011;6198;51.446;6.698;2023-04-06T10:36:32;20.07;;;14.17;;
12271;SDS011;6198;51.446;6.698;2023-04-06T10:38:59;21.93;;;15.27;;
12271;SDS011;6198;51.446;6.698;2023-04-06T10:41:41;22.17;;;15.57;;
12271;SDS011;6198;51.446;6.698;2023-04-06T10:44:07;23.20;;;14.60;;
12271;SDS011;6198;51.446;6.698;2023-04-06T10:46:34;22.73;;;15.53;;
12271;SDS011;6198;51.446;6.698;2023-04-06T10:49:09;25.57;;;16.03;;
12271;SDS011;6198;51.446;6.698;2023-04-06T10:51:37;20.53;;;14.10;;
12271;SDS011;6198;51.446;6.698;2023-04-06T10:54:03;18.47;;;14.63;;
12271;SDS011;6198;51.446;6.698;2023-04-06T10:56:30;20.67;;;15.33;;
12271;SDS011;6198;51.446;6.698;2023-04-06T10:59:00;22.37;;;15.20;;
12271;SDS011;6198;51.446;6.698;2023-04-06T11:01:26;21.03;;;14.43;;
12271;SDS011;6198;51.446;6.698;2023-04-06T11:03:53;22.13;;;15.33;;
12271;SDS011;6198;51.446;6.698;2023-04-06T11:06:21;21.80;;;15.63;;
12271;SDS011;6198;51.446;6.698;2023-04-06T11:08:47;22.47;;;15.33;;
12271;SDS011;6198;51.446;6.698;2023-04-06T11:11:15;22.83;;;14.60;;
12271;SDS011;6198;51.446;6.698;2023-04-06T11:13:44;18.67;;;14.20;;
12271;SDS011;6198;51.446;6.698;2023-04-06T11:16:17;20.77;;;15.03;;
12271;SDS011;6198;51.446;6.698;2023-04-06T11:18:47;24.70;;;14.43;;
12271;SDS011;6198;51.446;6.698;2023-04-06T11:21:13;22.27;;;16.30;;
12271;SDS011;6198;51.446;6.698;2023-04-06T11:23:39;20.23;;;15.20;;
12271;SDS011;6198;51.446;6.698;2023-04-06T11:26:09;20.23;;;15.47;;
12271;SDS011;6198;51.446;6.698;2023-04-06T11:28:35;19.83;;;15.80;;
12271;SDS011;6198;51.446;6.698;2023-04-06T11:31:01;22.47;;;16.30;;
12271;SDS011;6198;51.446;6.698;2023-04-06T11:33:27;24.10;;;16.67;;
12271;SDS011;6198;51.446;6.698;2023-04-06T11:35:56;23.13;;;15.70;;
12271;SDS011;6198;51.446;6.698;2023-04-06T11:38:22;26.20;;;16.63;;
12271;SDS011;6198;51.446;6.698;2023-04-06T11:40:52;19.63;;;15.57;;
12271;SDS011;6198;51.446;6.698;2023-04-06T11:43:25;20.33;;;14.93;;
12271;SDS011;6198;51.446;6.698;2023-04-06T11:45:51;21.27;;;15.53;;
12271;SDS011;6198;51.446;6.698;2023-04-06T11:48:25;18.93;;;15.53;;
12271;SDS011;6198;51.446;6.698;2023-04-06T11:50:54;25.50;;;16.67;;
12271;SDS011;6198;51.446;6.698;2023-04-06T11:53:20;24.83;;;16.50;;
12271;SDS011;6198;51.446;6.698;2023-04-06T11:55:46;24.90;;;14.83;;
12271;SDS011;6198;51.446;6.698;2023-04-06T11:58:12;28.50;;;15.90;;
12271;SDS011;6198;51.446;6.698;2023-04-06T12:00:38;23.97;;;16.47;;
12271;SDS011;6198;51.446;6.698;2023-04-06T12:03:09;21.90;;;15.63;;
12271;SDS011;6198;51.446;6.698;2023-04-06T12:05:35;20.40;;;14.93;;
12271;SDS011;6198;51.446;6.698;2023-04-06T12:08:01;19.40;;;16.20;;
12271;SDS011;6198;51.446;6.698;2023-04-06T12:10:27;19.53;;;14.90;;
12271;SDS011;6198;51.446;6.698;2023-04-06T12:12:53;20.23;;;14.97;;
12271;SDS011;6198;51.446;6.698;2023-04-06T12:15:19;19.97;;;15.27;;
12271;SDS011;6198;51.446;6.698;2023-04-06T12:17:45;21.93;;;14.27;;
12271;SDS011;6198;51.446;6.698;2023-04-06T12:20:11;21.43;;;15.07;;
12271;SDS011;6198;51.446;6.698;2023-04-06T12:22:38;23.53;;;15.83;;
12271;SDS011;6198;51.446;6.698;2023-04-06T12:25:04;19.27;;;14.30;;
12271;SDS011;6198;51.446;6.698;2023-04-06T12:27:31;23.80;;;15.43;;
12271;SDS011;6198;51.446;6.698;2023-04-06T12:29:57;22.00;;;14.90;;
12271;SDS011;6198;51.446;6.698;2023-04-06T12:32:23;23.10;;;14.90;;
12271;SDS011;6198;51.446;6.698;2023-04-06T12:34:50;21.17;;;14.20;;
12271;SDS011;6198;51.446;6.698;2023-04-06T12:37:16;20.00;;;13.43;;
12271;SDS011;6198;51.446;6.698;2023-04-06T12:39:42;14.97;;;12.47;;
12271;SDS011;6198;51.446;6.698;2023-04-06T12:42:10;13.33;;;11.17;;
12271;SDS011;6198;51.446;6.698;2023-04-06T12:44:37;12.53;;;10.57;;
12271;SDS011;6198;51.446;6.698;2023-04-06T12:47:03;12.77;;;10.30;;
12271;SDS011;6198;51.446;6.698;2023-04-06T12:49:30;12.77;;;10.37;;
12271;SDS011;6198;51.446;6.698;2023-04-06T12:51:56;13.53;;;11.13;;
12271;SDS011;6198;51.446;6.698;2023-04-06T12:54:23;16.60;;;10.77;;
12271;SDS011;6198;51.446;6.698;2023-04-06T12:56:50;12.70;;;10.40;;
12271;SDS011;6198;51.446;6.698;2023-04-06T12:59:17;14.20;;;9.70;;
12271;SDS011;6198;51.446;6.698;2023-04-06T13:01:43;12.07;;;9.13;;
12271;SDS011;6198;51.446;6.698;2023-04-06T13:04:09;13.37;;;8.20;;
12271;SDS011;6198;51.446;6.698;2023-04-06T13:06:35;12.17;;;8.53;;
12271;SDS011;6198;51.446;6.698;2023-04-06T13:09:01;10.50;;;8.47;;
12271;SDS011;6198;51.446;6.698;2023-04-06T13:11:28;11.23;;;8.70;;
12271;SDS011;6198;51.446;6.698;2023-04-06T13:13:54;14.80;;;8.83;;
12271;SDS011;6198;51.446;6.698;2023-04-06T13:16:20;10.00;;;8.30;;
12271;SDS011;6198;51.446;6.698;2023-04-06T13:18:46;13.77;;;8.50;;
12271;SDS011;6198;51.446;6.698;2023-04-06T13:21:15;10.73;;;7.47;;
12271;SDS011;6198;51.446;6.698;2023-04-06T13:23:41;8.97;;;6.87;;
12271;SDS011;6198;51.446;6.698;2023-04-06T13:26:07;9.03;;;7.63;;
12271;SDS011;6198;51.446;6.698;2023-04-06T13:28:35;8.33;;;6.70;;
12271;SDS011;6198;51.446;6.698;2023-04-06T13:31:02;11.50;;;7.77;;
12271;SDS011;6198;51.446;6.698;2023-04-06T13:33:29;10.83;;;7.30;;
12271;SDS011;6198;51.446;6.698;2023-04-06T13:35:55;9.83;;;7.30;;
12271;SDS011;6198;51.446;6.698;2023-04-06T13:38:21;8.67;;;7.37;;
12271;SDS011;6198;51.446;6.698;2023-04-06T13:40:49;14.80;;;8.03;;
12271;SDS011;6198;51.446;6.698;2023-04-06T13:43:15;10.30;;;7.63;;
12271;SDS011;6198;51.446;6.698;2023-04-06T13:45:48;10.33;;;8.10;;
12271;SDS011;6198;51.446;6.698;2023-04-06T13:48:14;10.93;;;9.03;;
12271;SDS011;6198;51.446;6.698;2023-04-06T13:50:40;11.77;;;8.47;;
12271;SDS011;6198;51.446;6.698;2023-04-06T13:53:06;13.40;;;9.33;;
12271;SDS011;6198;51.446;6.698;2023-04-06T13:55:32;10.53;;;9.07;;
12271;SDS011;6198;51.446;6.698;2023-04-06T13:57:57;13.43;;;8.83;;
12271;SDS011;6198;51.446;6.698;2023-04-06T14:00:23;12.87;;;8.80;;
12271;SDS011;6198;51.446;6.698;2023-04-06T14:02:50;10.27;;;9.00;;
12271;SDS011;6198;51.446;6.698;2023-04-06T14:05:16;10.10;;;8.60;;
12271;SDS011;6198;51.446;6.698;2023-04-06T14:07:42;9.67;;;8.07;;
12271;SDS011;6198;51.446;6.698;2023-04-06T14:10:08;11.47;;;8.67;;
12271;SDS011;6198;51.446;6.698;2023-04-06T14:12:39;14.00;;;8.80;;
12271;SDS011;6198;51.446;6.698;2023-04-06T14:15:05;9.77;;;8.77;;
12271;SDS011;6198;51.446;6.698;2023-04-06T14:17:32;9.93;;;8.90;;
12271;SDS011;6198;51.446;6.698;2023-04-06T14:19:57;11.40;;;9.50;;
12271;SDS011;6198;51.446;6.698;2023-04-06T14:22:23;10.33;;;8.60;;
12271;SDS011;6198;51.446;6.698;2023-04-06T14:24:50;12.20;;;9.63;;
12271;SDS011;6198;51.446;6.698;2023-04-06T14:27:15;10.03;;;8.70;;
12271;SDS011;6198;51.446;6.698;2023-04-06T14:29:41;13.03;;;10.07;;
12271;SDS011;6198;51.446;6.698;2023-04-06T14:32:07;14.47;;;11.00;;
12271;SDS011;6198;51.446;6.698;2023-04-06T14:34:33;15.73;;;10.23;;
12271;SDS011;6198;51.446;6.698;2023-04-06T14:37:02;11.27;;;9.47;;